createdAt,value
2023-05-04T00:01:51.648Z,8.70
2023-05-04T00:04:19.590Z,7.70
2023-05-04T00:06:47.354Z,8.53
2023-05-04T00:09:16.478Z,8.17
2023-05-04T00:11:44.160Z,11.40
2023-05-04T00:14:11.863Z,9.20
2023-05-04T00:16:39.703Z,10.47
2023-05-04T00:19:07.456Z,10.60
2023-05-04T00:21:35.107Z,6.80
2023-05-04T00:24:03.034Z,9.10
2023-05-04T00:26:32.100Z,11.10
2023-05-04T00:28:59.824Z,12.43
2023-05-04T00:31:27.590Z,10.27
2023-05-04T00:33:55.375Z,9.17
2023-05-04T00:36:23.130Z,8.30
2023-05-04T00:38:51.711Z,10.07
2023-05-04T00:41:21.356Z,13.23
2023-05-04T00:43:50.565Z,7.83
2023-05-04T00:46:18.993Z,10.07
2023-05-04T00:48:50.144Z,8.53
2023-05-04T00:51:20.731Z,9.10
2023-05-04T00:53:49.099Z,13.73
2023-05-04T00:56:17.725Z,7.50
2023-05-04T00:58:46.828Z,8.60
2023-05-04T01:01:16.044Z,10.10
2023-05-04T01:03:43.873Z,7.77
2023-05-04T01:06:23.768Z,8.73
2023-05-04T01:08:58.960Z,8.33
2023-05-04T01:11:33.408Z,9.73
2023-05-04T01:14:03.016Z,9.43
2023-05-04T01:16:32.174Z,9.85
2023-05-04T01:18:59.914Z,7.43
2023-05-04T01:21:31.549Z,8.57
2023-05-04T01:23:59.610Z,7.57
2023-05-04T01:26:31.070Z,8.57
2023-05-04T01:29:05.823Z,7.05
2023-05-04T01:31:37.803Z,9.90
2023-05-04T01:34:07.652Z,9.37
2023-05-04T01:36:37.083Z,10.07
2023-05-04T01:39:05.477Z,10.57
2023-05-04T01:41:33.235Z,8.47
2023-05-04T01:44:01.026Z,9.23
2023-05-04T01:46:28.924Z,9.07
2023-05-04T01:48:56.793Z,9.90
2023-05-04T01:51:24.570Z,11.73
2023-05-04T01:53:53.610Z,9.97
2023-05-04T01:56:21.745Z,10.03
2023-05-04T01:58:49.431Z,10.90
2023-05-04T02:01:17.193Z,11.65
2023-05-04T02:03:45.562Z,13.40
2023-05-04T02:06:13.360Z,11.67
2023-05-04T02:08:41.056Z,9.40
2023-05-04T02:11:10.066Z,9.03
2023-05-04T02:13:37.744Z,10.65
2023-05-04T02:16:06.244Z,9.40
2023-05-04T02:18:33.947Z,9.73
2023-05-04T02:21:01.700Z,8.80
2023-05-04T02:23:29.627Z,8.53
2023-05-04T02:25:57.595Z,9.27
2023-05-04T02:28:26.885Z,9.13
2023-05-04T02:30:54.566Z,9.20
2023-05-04T02:33:22.254Z,11.70
2023-05-04T02:35:49.861Z,11.77
2023-05-04T02:38:17.545Z,9.00
2023-05-04T02:40:45.262Z,9.60
2023-05-04T02:43:12.926Z,11.13
2023-05-04T02:45:42.117Z,8.77
2023-05-04T02:48:09.907Z,11.25
2023-05-04T02:50:37.703Z,10.20
2023-05-04T02:53:05.494Z,11.27
2023-05-04T02:55:33.256Z,10.90
2023-05-04T02:58:01.251Z,13.35
2023-05-04T03:00:28.945Z,11.57
2023-05-04T03:02:58.053Z,13.85
2023-05-04T03:05:25.815Z,12.48
2023-05-04T03:07:53.520Z,11.85
2023-05-04T03:10:21.253Z,12.05
2023-05-04T03:12:49.004Z,15.38
2023-05-04T03:15:16.907Z,15.65
2023-05-04T03:17:44.772Z,13.10
2023-05-04T03:20:15.523Z,16.50
2023-05-04T03:22:43.263Z,20.02
2023-05-04T03:25:11.271Z,15.65
2023-05-04T03:27:39.042Z,13.45
2023-05-04T03:30:08.151Z,14.88
2023-05-04T03:32:36.247Z,15.00
2023-05-04T03:35:04.301Z,12.30
2023-05-04T03:37:33.441Z,11.65
2023-05-04T03:40:01.230Z,12.50
2023-05-04T03:42:28.919Z,11.95
2023-05-04T03:44:56.608Z,18.30
2023-05-04T03:47:24.292Z,17.63
2023-05-04T03:49:52.171Z,19.65
2023-05-04T03:52:19.898Z,14.20
2023-05-04T03:54:48.935Z,16.60
2023-05-04T03:57:16.670Z,12.85
2023-05-04T03:59:44.402Z,14.00
2023-05-04T04:02:13.030Z,14.95
2023-05-04T04:04:40.755Z,14.95
2023-05-04T04:07:08.466Z,17.85
2023-05-04T04:09:36.394Z,17.75
2023-05-04T04:12:05.583Z,14.52
2023-05-04T04:14:33.386Z,19.95
2023-05-04T04:17:01.081Z,19.77
2023-05-04T04:19:29.042Z,19.45
2023-05-04T04:21:58.924Z,15.40
2023-05-04T04:24:26.899Z,15.75
2023-05-04T04:26:54.627Z,15.32
2023-05-04T04:29:23.646Z,16.10
2023-05-04T04:31:51.452Z,15.38
2023-05-04T04:34:19.395Z,15.82
2023-05-04T04:36:47.159Z,16.05
2023-05-04T04:41:54.039Z,17.92
2023-05-04T04:44:23.214Z,23.05
2023-05-04T04:46:51.155Z,18.25
2023-05-04T04:49:18.826Z,17.63
2023-05-04T04:51:48.805Z,25.98
2023-05-04T04:54:16.763Z,16.33
2023-05-04T04:56:44.968Z,17.58
2023-05-04T04:59:14.020Z,18.98
2023-05-04T05:01:43.226Z,22.85
2023-05-04T05:04:10.950Z,18.95
2023-05-04T05:06:38.698Z,17.05
2023-05-04T05:09:06.580Z,17.65
2023-05-04T05:11:34.397Z,21.08
2023-05-04T05:14:02.203Z,20.77
2023-05-04T05:16:30.181Z,20.75
2023-05-04T05:18:59.415Z,16.48
2023-05-04T05:21:28.047Z,17.08
2023-05-04T05:23:55.728Z,17.70
2023-05-04T05:26:24.804Z,18.00
2023-05-04T05:28:52.534Z,23.30
2023-05-04T05:31:20.258Z,18.23
2023-05-04T05:33:47.983Z,24.30
2023-05-04T05:36:17.056Z,19.23
2023-05-04T05:38:44.704Z,18.40
2023-05-04T05:41:12.594Z,20.00
2023-05-04T05:43:40.319Z,19.88
2023-05-04T05:46:08.186Z,20.92
2023-05-04T05:48:36.066Z,23.50
2023-05-04T05:51:04.151Z,23.67
2023-05-04T05:53:33.157Z,24.70
2023-05-04T05:56:00.936Z,35.13
2023-05-04T05:58:28.781Z,31.70
2023-05-04T06:00:56.538Z,32.17
2023-05-04T06:03:24.391Z,24.73
2023-05-04T06:05:52.229Z,24.88
2023-05-04T06:08:19.945Z,24.60
2023-05-04T06:10:50.470Z,26.57
2023-05-04T06:13:18.372Z,23.90
2023-05-04T06:15:52.073Z,22.53
2023-05-04T06:18:20.173Z,25.57
2023-05-04T06:20:48.183Z,23.57
2023-05-04T06:23:16.608Z,24.43
2023-05-04T06:25:44.434Z,22.33
2023-05-04T06:28:13.516Z,22.60
2023-05-04T06:30:41.255Z,21.77
2023-05-04T06:33:08.941Z,20.43
2023-05-04T06:35:36.746Z,23.37
2023-05-04T06:38:04.628Z,18.13
2023-05-04T06:40:32.462Z,21.37
2023-05-04T06:43:00.184Z,22.27
2023-05-04T06:45:29.469Z,28.43
2023-05-04T06:47:57.499Z,29.40
2023-05-04T06:50:25.277Z,23.87
2023-05-04T06:52:53.064Z,22.30
2023-05-04T06:55:20.942Z,23.10
2023-05-04T06:57:48.660Z,24.97
2023-05-04T07:00:16.802Z,23.27
2023-05-04T07:02:46.965Z,22.33
2023-05-04T07:05:14.726Z,21.50
2023-05-04T07:07:42.442Z,25.00
2023-05-04T07:10:10.813Z,22.40
2023-05-04T07:12:38.681Z,24.30
2023-05-04T07:15:07.485Z,30.03
2023-05-04T07:17:35.667Z,20.80
2023-05-04T07:20:06.032Z,26.00
2023-05-04T07:22:34.319Z,25.00
2023-05-04T07:25:02.330Z,19.70
2023-05-04T07:27:31.080Z,22.73
2023-05-04T07:29:58.904Z,19.33
2023-05-04T07:32:26.681Z,14.97
2023-05-04T07:34:54.385Z,20.60
2023-05-04T07:37:23.404Z,18.37
2023-05-04T07:39:51.273Z,15.30
2023-05-04T07:42:19.128Z,16.90
2023-05-04T07:44:47.101Z,21.37
2023-05-04T07:47:14.875Z,21.93
2023-05-04T07:49:42.614Z,18.00
2023-05-04T07:52:10.369Z,16.93
2023-05-04T07:54:39.425Z,21.53
2023-05-04T07:57:07.315Z,22.40
2023-05-04T07:59:35.117Z,16.83
2023-05-04T08:02:02.996Z,14.97
2023-05-04T08:04:30.835Z,15.43
2023-05-04T08:06:58.537Z,12.87
2023-05-04T08:09:26.335Z,15.30
2023-05-04T08:11:55.479Z,12.10
2023-05-04T08:14:23.229Z,16.87
2023-05-04T08:16:50.954Z,11.03
2023-05-04T08:19:20.090Z,15.77
2023-05-04T08:21:48.399Z,11.63
2023-05-04T08:24:16.341Z,14.80
2023-05-04T08:26:47.299Z,18.50
2023-05-04T08:29:22.451Z,11.83
2023-05-04T08:31:50.620Z,10.70
2023-05-04T08:34:18.365Z,15.87
2023-05-04T08:36:46.873Z,11.90
2023-05-04T08:39:14.714Z,11.20
2023-05-04T08:41:43.384Z,9.83
2023-05-04T08:44:12.253Z,10.30
2023-05-04T08:46:42.283Z,11.50
2023-05-04T08:49:10.560Z,10.53
2023-05-04T08:51:38.545Z,10.60
2023-05-04T08:54:11.652Z,8.33
2023-05-04T08:56:41.261Z,11.00
2023-05-04T08:59:11.138Z,9.10
2023-05-04T09:01:39.888Z,10.10
2023-05-04T09:04:09.071Z,10.63
2023-05-04T09:06:36.977Z,12.83
2023-05-04T09:09:05.042Z,11.20
2023-05-04T09:11:32.794Z,8.20
2023-05-04T09:14:00.783Z,12.97
2023-05-04T09:16:35.358Z,10.50
2023-05-04T09:19:04.611Z,8.67
2023-05-04T09:21:34.608Z,11.43
2023-05-04T09:24:02.595Z,11.47
2023-05-04T09:26:31.119Z,9.70
2023-05-04T09:29:10.948Z,10.00
2023-05-04T09:31:44.297Z,8.80
2023-05-04T09:34:12.193Z,9.50
2023-05-04T09:36:42.204Z,10.40
2023-05-04T09:39:11.582Z,10.43
2023-05-04T09:41:39.432Z,9.57
2023-05-04T09:44:18.349Z,8.80
2023-05-04T09:46:53.541Z,8.93
2023-05-04T09:49:31.185Z,11.40
2023-05-04T09:52:02.481Z,7.17
2023-05-04T09:54:32.418Z,7.93
2023-05-04T09:57:08.350Z,8.47
2023-05-04T09:59:36.246Z,7.07
2023-05-04T10:02:14.039Z,7.33
2023-05-04T10:04:50.950Z,9.73
2023-05-04T10:07:20.976Z,11.70
2023-05-04T10:09:50.325Z,7.47
2023-05-04T10:12:18.544Z,7.87
2023-05-04T10:14:47.273Z,8.63
2023-05-04T10:17:28.009Z,7.40
2023-05-04T10:20:10.885Z,6.33
2023-05-04T10:22:59.620Z,10.30
2023-05-04T10:25:45.265Z,8.40
2023-05-04T10:28:26.353Z,7.60
2023-05-04T10:30:57.970Z,9.90
2023-05-04T10:33:25.939Z,8.40
2023-05-04T10:35:54.348Z,6.50
2023-05-04T10:38:33.301Z,8.57
2023-05-04T10:41:01.088Z,7.53
2023-05-04T10:43:30.113Z,8.73
2023-05-04T10:45:58.709Z,8.37
2023-05-04T10:48:35.638Z,11.13
2023-05-04T10:51:04.578Z,9.83
2023-05-04T10:53:34.302Z,6.80
2023-05-04T10:56:02.096Z,6.20
2023-05-04T10:58:30.574Z,7.13
2023-05-04T11:00:58.493Z,6.63
2023-05-04T11:03:26.839Z,9.00
2023-05-04T11:05:55.414Z,12.60
2023-05-04T11:08:24.993Z,7.37
2023-05-04T11:11:04.926Z,9.13
2023-05-04T11:13:35.968Z,7.80
2023-05-04T11:16:03.868Z,7.10
2023-05-04T11:18:34.156Z,8.53
2023-05-04T11:21:02.558Z,11.47
2023-05-04T11:23:30.747Z,8.80
2023-05-04T11:25:58.669Z,6.63
2023-05-04T11:28:36.076Z,7.83
2023-05-04T11:31:13.873Z,7.70
2023-05-04T11:33:46.703Z,6.93
2023-05-04T11:36:14.550Z,10.53
2023-05-04T11:38:42.626Z,7.63
2023-05-04T11:41:10.711Z,8.10
2023-05-04T11:43:42.058Z,7.93
2023-05-04T11:46:10.680Z,9.57
2023-05-04T11:48:39.387Z,7.50
2023-05-04T11:51:07.573Z,7.37
2023-05-04T11:53:38.707Z,9.67
2023-05-04T11:56:08.332Z,7.80
2023-05-04T11:58:37.061Z,7.93
2023-05-04T12:01:06.308Z,6.90
2023-05-04T12:03:52.268Z,7.17
2023-05-04T12:06:32.497Z,10.17
2023-05-04T12:09:05.551Z,10.13
2023-05-04T12:11:33.495Z,9.83
2023-05-04T12:14:05.462Z,6.63
2023-05-04T12:16:35.083Z,7.63
2023-05-04T12:19:05.320Z,8.20
2023-05-04T12:21:33.992Z,6.00
2023-05-04T12:24:03.283Z,10.70
2023-05-04T12:26:31.368Z,12.40
2023-05-04T12:28:59.099Z,11.23
2023-05-04T12:31:27.159Z,9.57
2023-05-04T12:33:56.404Z,7.13
2023-05-04T12:36:24.339Z,8.23
2023-05-04T12:38:52.229Z,8.63
2023-05-04T12:41:19.919Z,9.47
2023-05-04T12:43:47.665Z,6.93
2023-05-04T12:46:17.428Z,17.30
2023-05-04T12:48:45.185Z,9.10
2023-05-04T12:51:14.279Z,13.63
2023-05-04T12:53:42.348Z,10.10
2023-05-04T12:56:10.062Z,12.00
2023-05-04T12:58:37.871Z,7.90
2023-05-04T13:01:05.707Z,11.43
2023-05-04T13:03:33.633Z,7.60
2023-05-04T13:06:01.440Z,8.63
2023-05-04T13:08:30.501Z,12.40
2023-05-04T13:10:58.258Z,8.80
2023-05-04T13:13:28.682Z,7.83
2023-05-04T13:15:57.235Z,9.70
2023-05-04T13:18:27.304Z,9.23
2023-05-04T13:20:55.389Z,10.63
2023-05-04T13:23:23.173Z,9.53
2023-05-04T13:25:52.717Z,10.60
2023-05-04T13:28:20.510Z,8.60
2023-05-04T13:30:48.294Z,9.47
2023-05-04T13:33:27.945Z,11.70
2023-05-04T13:35:58.131Z,9.77
2023-05-04T13:38:26.219Z,11.97
2023-05-04T13:40:55.360Z,11.80
2023-05-04T13:43:23.483Z,10.43
2023-05-04T13:45:51.675Z,7.50
2023-05-04T13:48:19.596Z,7.47
2023-05-04T13:50:47.452Z,12.40
2023-05-04T13:53:15.371Z,8.80
2023-05-04T13:55:43.091Z,10.03
2023-05-04T13:58:12.420Z,10.37
2023-05-04T14:00:40.290Z,9.60
2023-05-04T14:03:08.328Z,8.63
2023-05-04T14:05:36.524Z,11.87
2023-05-04T14:08:04.345Z,10.27
2023-05-04T14:10:32.210Z,9.80
2023-05-04T14:13:00.046Z,10.10
2023-05-04T14:15:29.447Z,9.77
2023-05-04T14:17:57.248Z,7.73
2023-05-04T14:20:25.025Z,8.70
2023-05-04T14:22:52.749Z,12.67
2023-05-04T14:25:22.134Z,9.80
2023-05-04T14:27:50.088Z,10.73
2023-05-04T14:30:18.028Z,18.43
2023-05-04T14:32:47.466Z,8.30
2023-05-04T14:35:16.800Z,10.50
2023-05-04T14:37:44.512Z,9.63
2023-05-04T14:40:13.313Z,10.67
2023-05-04T14:42:41.010Z,11.60
2023-05-04T14:45:09.829Z,10.23
2023-05-04T14:47:37.900Z,8.90
2023-05-04T14:50:08.266Z,13.60
2023-05-04T14:52:36.210Z,15.30
2023-05-04T14:55:06.215Z,11.50
2023-05-04T14:57:34.033Z,8.40
2023-05-04T15:00:07.512Z,9.90
2023-05-04T15:02:35.741Z,12.53
2023-05-04T15:05:03.753Z,11.40
2023-05-04T15:07:32.807Z,10.43
2023-05-04T15:10:00.717Z,9.37
2023-05-04T15:12:28.382Z,12.30
2023-05-04T15:14:56.072Z,15.13
2023-05-04T15:17:23.863Z,11.10
2023-05-04T15:19:51.656Z,11.40
2023-05-04T15:22:19.345Z,19.90
2023-05-04T15:24:48.386Z,11.73
2023-05-04T15:27:16.209Z,13.03
2023-05-04T15:29:44.029Z,10.60
2023-05-04T15:32:11.753Z,14.43
2023-05-04T15:34:39.495Z,8.67
2023-05-04T15:37:07.287Z,9.10
2023-05-04T15:39:36.034Z,10.00
2023-05-04T15:42:05.244Z,10.47
2023-05-04T15:44:33.243Z,17.13
2023-05-04T15:47:01.421Z,8.80
2023-05-04T15:49:29.187Z,10.50
2023-05-04T15:51:56.900Z,9.33
2023-05-04T15:54:24.884Z,8.30
2023-05-04T15:56:52.713Z,9.40
2023-05-04T15:59:21.801Z,12.00
2023-05-04T16:01:49.561Z,11.00
2023-05-04T16:04:18.022Z,9.87
2023-05-04T16:06:46.114Z,7.93
2023-05-04T16:09:17.076Z,8.00
2023-05-04T16:11:45.790Z,9.63
2023-05-04T16:14:14.222Z,8.87
2023-05-04T16:16:43.318Z,10.50
2023-05-04T16:19:11.786Z,7.77
2023-05-04T16:21:39.610Z,9.23
2023-05-04T16:24:08.087Z,7.47
2023-05-04T16:26:35.771Z,8.67
2023-05-04T16:29:03.498Z,7.53
2023-05-04T16:31:31.332Z,11.07
2023-05-04T16:34:00.500Z,15.53
2023-05-04T16:36:28.215Z,8.47
2023-05-04T16:38:55.893Z,10.47
2023-05-04T16:41:23.725Z,8.97
2023-05-04T16:43:51.442Z,9.60
2023-05-04T16:46:19.167Z,10.77
2023-05-04T16:48:46.959Z,9.03
2023-05-04T16:51:16.150Z,9.87
2023-05-04T16:53:43.830Z,9.27
2023-05-04T16:56:18.069Z,8.80
2023-05-04T16:58:46.072Z,13.10
2023-05-04T17:01:13.890Z,11.70
2023-05-04T17:03:41.671Z,12.57
2023-05-04T17:06:09.442Z,10.43
2023-05-04T17:08:38.449Z,8.60
2023-05-04T17:11:06.378Z,9.40
2023-05-04T17:13:34.170Z,10.00
2023-05-04T17:16:01.876Z,9.90
2023-05-04T17:18:29.814Z,10.53
2023-05-04T17:20:57.551Z,12.57
2023-05-04T17:23:25.345Z,9.40
2023-05-04T17:25:54.358Z,10.83
2023-05-04T17:28:22.111Z,9.93
2023-05-04T17:30:49.948Z,11.10
2023-05-04T17:33:17.704Z,12.33
2023-05-04T17:35:45.471Z,12.13
2023-05-04T17:38:13.124Z,15.37
2023-05-04T17:40:40.856Z,12.63
2023-05-04T17:43:11.098Z,11.40
2023-05-04T17:45:38.891Z,9.40
2023-05-04T17:48:07.095Z,9.60
2023-05-04T17:50:34.916Z,9.77
2023-05-04T17:53:02.638Z,16.23
2023-05-04T17:55:30.464Z,11.00
2023-05-04T17:57:58.146Z,13.20
2023-05-04T18:00:27.969Z,10.67
2023-05-04T18:02:55.836Z,10.30
2023-05-04T18:05:23.587Z,8.50
2023-05-04T18:07:51.329Z,9.60
2023-05-04T18:10:19.341Z,10.30
2023-05-04T18:12:47.232Z,12.20
2023-05-04T18:15:16.458Z,10.50
2023-05-04T18:17:45.783Z,14.80
2023-05-04T18:20:13.672Z,14.40
2023-05-04T18:22:41.525Z,13.73
2023-05-04T18:25:10.372Z,9.70
2023-05-04T18:27:38.278Z,9.83
2023-05-04T18:30:07.414Z,9.67
2023-05-04T18:32:35.582Z,10.90
2023-05-04T18:35:04.900Z,11.47
2023-05-04T18:37:32.803Z,12.87
2023-05-04T18:40:01.003Z,15.43
2023-05-04T18:42:28.724Z,8.47
2023-05-04T18:44:56.688Z,18.13
2023-05-04T18:47:25.230Z,12.73
2023-05-04T18:49:54.525Z,10.13
2023-05-04T18:52:23.783Z,13.13
2023-05-04T18:54:51.509Z,9.80
2023-05-04T18:57:19.242Z,20.60
2023-05-04T18:59:47.378Z,8.03
2023-05-04T19:02:15.184Z,10.10
2023-05-04T19:04:42.897Z,19.40
2023-05-04T19:07:10.700Z,11.37
2023-05-04T19:09:39.849Z,11.07
2023-05-04T19:12:08.056Z,10.57
2023-05-04T19:14:35.737Z,11.87
2023-05-04T19:17:04.855Z,16.13
2023-05-04T19:19:36.372Z,9.40
2023-05-04T19:22:04.371Z,10.00
2023-05-04T19:24:34.357Z,11.43
2023-05-04T19:27:03.664Z,11.10
2023-05-04T19:29:31.513Z,9.80
2023-05-04T19:32:01.283Z,10.73
2023-05-04T19:34:33.626Z,17.13
2023-05-04T19:37:01.391Z,9.03
2023-05-04T19:39:29.502Z,17.03
2023-05-04T19:41:57.240Z,14.20
2023-05-04T19:44:26.742Z,12.00
2023-05-04T19:46:54.469Z,11.70
2023-05-04T19:49:22.234Z,11.80
2023-05-04T19:51:49.987Z,10.00
2023-05-04T19:54:17.709Z,12.17
2023-05-04T19:56:45.428Z,11.93
2023-05-04T19:59:13.324Z,11.97
2023-05-04T20:01:44.740Z,9.50
2023-05-04T20:04:12.606Z,10.30
2023-05-04T20:06:40.462Z,10.13
2023-05-04T20:09:08.312Z,10.13
2023-05-04T20:11:38.262Z,10.53
2023-05-04T20:14:06.030Z,12.53
2023-05-04T20:16:33.779Z,12.33
2023-05-04T20:19:04.070Z,12.33
2023-05-04T20:21:32.288Z,12.40
2023-05-04T20:24:00.078Z,9.33
2023-05-04T20:26:27.747Z,9.13
2023-05-04T20:28:55.489Z,13.53
2023-05-04T20:31:23.224Z,10.83
2023-05-04T20:33:51.058Z,17.17
2023-05-04T20:36:20.145Z,19.00
2023-05-04T20:38:47.822Z,9.57
2023-05-04T20:41:15.550Z,14.13
2023-05-04T20:43:43.287Z,13.90
2023-05-04T20:46:11.318Z,10.70
2023-05-04T20:48:39.061Z,10.00
2023-05-04T20:51:14.428Z,13.87
2023-05-04T20:53:44.074Z,8.93
2023-05-04T20:56:12.296Z,14.50
2023-05-04T20:58:40.034Z,13.63
2023-05-04T21:01:08.240Z,7.67
2023-05-04T21:03:36.296Z,10.77
2023-05-04T21:06:04.985Z,13.90
2023-05-04T21:08:32.749Z,15.33
2023-05-04T21:11:02.143Z,9.40
2023-05-04T21:13:29.768Z,12.53
2023-05-04T21:15:59.520Z,14.37
2023-05-04T21:18:27.480Z,10.40
2023-05-04T21:20:55.257Z,9.83
2023-05-04T21:23:25.006Z,11.53
2023-05-04T21:26:02.687Z,9.40
2023-05-04T21:28:31.243Z,12.30
2023-05-04T21:30:59.440Z,11.20
2023-05-04T21:33:27.239Z,10.67
2023-05-04T21:35:54.949Z,16.33
2023-05-04T21:38:22.749Z,10.87
2023-05-04T21:40:50.665Z,12.47
2023-05-04T21:43:19.695Z,12.87
2023-05-04T21:45:47.373Z,11.33
2023-05-04T21:48:15.016Z,11.33
2023-05-04T21:50:42.706Z,10.90
2023-05-04T21:53:11.261Z,9.47
2023-05-04T21:55:38.953Z,13.87
2023-05-04T21:58:06.881Z,11.37
2023-05-04T22:00:36.097Z,16.53
2023-05-04T22:03:03.826Z,13.40
2023-05-04T22:05:31.457Z,14.23
2023-05-04T22:08:00.920Z,9.97
2023-05-04T22:10:29.130Z,12.30
2023-05-04T22:12:56.862Z,11.80
2023-05-04T22:15:27.620Z,12.57
2023-05-04T22:18:00.822Z,10.17
2023-05-04T22:20:28.669Z,9.43
2023-05-04T22:22:56.528Z,11.30
2023-05-04T22:25:24.166Z,9.30
2023-05-04T22:27:51.900Z,10.33
2023-05-04T22:30:21.377Z,9.67
2023-05-04T22:32:49.137Z,9.03
2023-05-04T22:35:18.377Z,17.10
2023-05-04T22:37:47.969Z,11.40
2023-05-04T22:40:15.824Z,11.20
2023-05-04T22:42:45.139Z,11.70
2023-05-04T22:45:14.799Z,9.63
2023-05-04T22:47:42.936Z,7.70
2023-05-04T22:50:11.452Z,15.30
2023-05-04T22:52:40.860Z,12.27
2023-05-04T22:55:09.529Z,10.63
2023-05-04T22:57:37.291Z,15.67
2023-05-04T23:00:07.720Z,9.20
2023-05-04T23:02:35.880Z,11.23
2023-05-04T23:05:03.961Z,10.57
2023-05-04T23:07:31.635Z,9.70
2023-05-04T23:10:00.700Z,18.33
2023-05-04T23:12:29.003Z,9.80
2023-05-04T23:14:56.953Z,13.70
2023-05-04T23:17:24.729Z,9.70
2023-05-04T23:19:52.396Z,7.50
2023-05-04T23:22:20.105Z,8.83
2023-05-04T23:24:47.831Z,16.03
2023-05-04T23:27:17.618Z,16.07
2023-05-04T23:29:45.340Z,9.17
2023-05-04T23:32:13.007Z,13.60
2023-05-04T23:34:40.656Z,13.50
2023-05-04T23:37:08.325Z,8.87
2023-05-04T23:39:36.031Z,9.50
2023-05-04T23:42:03.799Z,14.80
2023-05-04T23:44:33.061Z,11.97
2023-05-04T23:47:00.794Z,11.00
2023-05-04T23:49:28.467Z,8.90
2023-05-04T23:51:56.378Z,9.17
2023-05-04T23:54:24.055Z,13.07
2023-05-04T23:56:51.782Z,11.77
2023-05-04T23:59:19.539Z,12.23
